Time;durP1;ratioP1;P1;durP2;ratioP2;P2;SDS_P1;SDS_P2;PMS_P1;PMS_P2;Temp;Humidity;BMP_temperature;BMP_pressure;BME280_temperature;BME280_humidity;BME280_pressure;Samples;Min_cycle;Max_cycle;Signal;HPM_P1;HPM_P2
2023/05/07 00:01:12;;;;;;;16.52;13.40;;;;;;;18.36;100.00;100383.53;5092585;28;20383;-66
2023/05/07 00:03:37;;;;;;;13.32;11.93;;;;;;;18.32;100.00;100384.06;5092379;28;20020;-67
2023/05/07 00:06:03;;;;;;;14.35;12.95;;;;;;;18.26;100.00;100387.50;5091050;28;20036;-67
2023/05/07 00:08:28;;;;;;;14.73;11.63;;;;;;;18.24;100.00;100392.25;5092388;28;20101;-65
2023/05/07 00:10:54;;;;;;;13.95;10.75;;;;;;;18.20;97.89;100386.38;5092093;28;20088;-66
2023/05/07 00:13:19;;;;;;;11.18;10.07;;;;;;;18.15;97.99;100387.94;5092208;28;20024;-66
2023/05/07 00:15:45;;;;;;;11.60;10.40;;;;;;;18.12;97.59;100382.88;5091694;28;20024;-66
2023/05/07 00:18:10;;;;;;;12.57;11.27;;;;;;;18.09;97.59;100392.22;5090323;28;20380;-67
2023/05/07 00:20:36;;;;;;;13.63;11.93;;;;;;;18.06;97.68;100387.97;5091837;28;20020;-66
2023/05/07 00:23:01;;;;;;;12.65;11.35;;;;;;;18.06;97.90;100381.72;5091040;28;20107;-66
2023/05/07 00:25:27;;;;;;;11.70;10.50;;;;;;;18.00;96.55;100380.56;5092039;28;20032;-67
2023/05/07 00:27:52;;;;;;;12.18;10.93;;;;;;;18.02;97.01;100381.22;5091661;28;20035;-67
2023/05/07 00:30:18;;;;;;;12.63;11.00;;;;;;;18.00;97.21;100380.56;5091954;28;20052;-67
2023/05/07 00:32:45;;;;;;;12.32;11.13;;;;;;;18.00;97.81;100383.28;5091413;28;20032;-66
2023/05/07 00:35:11;;;;;;;13.50;11.98;;;;;;;18.00;100.00;100383.28;5092017;28;20063;-66
2023/05/07 00:37:36;;;;;;;14.93;12.13;;;;;;;17.85;100.00;100355.25;5091955;28;20016;-66
2023/05/07 00:40:04;;;;;;;13.57;12.13;;;;;;;17.81;100.00;100344.94;5091569;28;20365;-66
2023/05/07 00:42:32;;;;;;;11.52;10.45;;;;;;;17.94;100.00;100372.31;5091664;28;20040;-67
2023/05/07 00:44:58;;;;;;;13.43;11.00;;;;;;;17.80;100.00;100348.66;5091431;28;20542;-66
2023/05/07 00:47:25;;;;;;;11.02;9.73;;;;;;;17.86;100.00;100361.50;5091583;28;20036;-66
2023/05/07 00:49:51;;;;;;;12.68;10.98;;;;;;;17.85;100.00;100378.81;5091174;28;20097;-66
2023/05/07 00:52:17;;;;;;;12.25;10.80;;;;;;;17.84;100.00;100374.41;5091450;28;20480;-66
2023/05/07 00:54:42;;;;;;;13.52;12.05;;;;;;;17.82;100.00;100366.47;5091462;28;20383;-66
2023/05/07 00:57:10;;;;;;;11.68;10.48;;;;;;;17.74;100.00;100358.34;5090147;28;20028;-67
2023/05/07 00:59:36;;;;;;;12.07;10.80;;;;;;;17.78;100.00;100361.56;5091163;28;20115;-66
2023/05/07 01:02:02;;;;;;;12.90;11.10;;;;;;;17.74;100.00;100360.25;5091412;28;20450;-66
2023/05/07 01:04:27;;;;;;;11.88;10.68;;;;;;;17.76;100.00;100369.03;5091341;28;20044;-66
2023/05/07 01:06:56;;;;;;;13.07;11.73;;;;;;;17.67;100.00;100356.56;5091021;28;20055;-66
2023/05/07 01:09:24;;;;;;;13.38;12.15;;;;;;;17.65;100.00;100353.16;5089981;28;20020;-67
2023/05/07 01:11:51;;;;;;;13.05;11.75;;;;;;;17.69;100.00;100359.91;5090850;28;20039;-67
2023/05/07 01:14:17;;;;;;;13.60;11.73;;;;;;;17.59;100.00;100345.75;5091164;28;20099;-66
2023/05/07 01:16:43;;;;;;;13.20;10.43;;;;;;;17.68;100.00;100356.38;5102861;28;20039;-67
2023/05/07 01:19:10;;;;;;;11.77;10.57;;;;;;;17.66;100.00;100365.69;5091041;28;20032;-66
2023/05/07 01:21:37;;;;;;;13.18;11.82;;;;;;;17.61;100.00;100366.22;5090989;28;20334;-66
2023/05/07 01:24:03;;;;;;;12.85;11.55;;;;;;;17.61;100.00;100365.41;5091024;28;20392;-67
2023/05/07 01:26:29;;;;;;;11.85;10.63;;;;;;;17.60;100.00;100378.13;5091034;28;20044;-67
2023/05/07 01:28:54;;;;;;;12.82;10.73;;;;;;;17.59;100.00;100371.00;5090474;28;20459;-67
2023/05/07 01:31:20;;;;;;;12.50;11.05;;;;;;;17.59;100.00;100375.56;5090812;28;20024;-67
2023/05/07 01:33:48;;;;;;;13.45;11.15;;;;;;;17.54;100.00;100367.97;5099160;28;20376;-66
2023/05/07 01:36:15;;;;;;;12.90;11.63;;;;;;;17.53;100.00;100377.16;5111789;28;20114;-66
2023/05/07 01:38:42;;;;;;;12.63;11.32;;;;;;;17.52;100.00;100364.63;5111025;28;20567;-67
2023/05/07 01:41:07;;;;;;;15.00;11.13;;;;;;;17.52;100.00;100361.03;5109595;28;20395;-67
2023/05/07 01:43:33;;;;;;;13.52;12.13;;;;;;;17.43;100.00;100343.13;5110763;28;20019;-67
2023/05/07 01:45:59;;;;;;;12.50;11.20;;;;;;;17.51;100.00;100360.19;5110673;28;20055;-67
2023/05/07 01:48:26;;;;;;;15.70;11.95;;;;;;;17.48;100.00;100355.13;5105775;28;20028;-66
2023/05/07 01:50:51;;;;;;;13.18;11.80;;;;;;;17.48;100.00;100355.13;5090243;28;20077;-67
2023/05/07 01:53:17;;;;;;;13.02;11.73;;;;;;;17.42;100.00;100349.53;5090378;28;20024;-67
2023/05/07 01:55:42;;;;;;;14.05;11.70;;;;;;;17.48;100.00;100357.84;5090371;28;20035;-67
2023/05/07 01:58:08;;;;;;;12.48;11.00;;;;;;;17.50;100.00;100363.94;5089456;28;20038;-66
2023/05/07 02:00:33;;;;;;;12.52;11.32;;;;;;;17.50;100.00;100353.09;5089592;28;20435;-66
2023/05/07 02:02:59;;;;;;;13.10;11.68;;;;;;;17.51;100.00;100360.19;5089504;28;20023;-67
2023/05/07 02:05:24;;;;;;;12.98;11.07;;;;;;;17.39;100.00;100337.19;5089469;28;20027;-67
2023/05/07 02:07:50;;;;;;;12.80;11.50;;;;;;;17.35;100.00;100330.41;5089363;28;20039;-67
2023/05/07 02:10:15;;;;;;;14.55;12.13;;;;;;;17.48;100.00;100351.59;5089683;28;20515;-67
2023/05/07 02:12:42;;;;;;;12.32;11.10;;;;;;;17.49;100.00;100354.13;5089023;28;20024;-67
2023/05/07 02:15:08;;;;;;;11.93;10.63;;;;;;;17.52;100.00;100366.47;5089429;28;20028;-67
2023/05/07 02:17:33;;;;;;;13.80;12.30;;;;;;;17.49;100.00;100356.84;5089326;28;20495;-66
2023/05/07 02:19:59;;;;;;;12.25;11.05;;;;;;;17.49;100.00;100359.53;5089166;28;20032;-67
2023/05/07 02:22:25;;;;;;;14.10;11.77;;;;;;;17.44;100.00;100348.38;5088992;28;20472;-66
2023/05/07 02:24:51;;;;;;;12.65;11.35;;;;;;;17.41;100.00;100337.03;5089062;28;20066;-68
2023/05/07 02:27:16;;;;;;;13.73;11.63;;;;;;;17.48;100.00;100349.69;5089461;28;20051;-67
2023/05/07 02:29:42;;;;;;;13.07;11.45;;;;;;;17.46;100.00;100354.47;5089505;28;20110;-68
2023/05/07 02:32:07;;;;;;;13.38;11.30;;;;;;;17.45;100.00;100344.63;5089746;28;20032;-67
2023/05/07 02:34:33;;;;;;;12.32;11.00;;;;;;;17.46;100.00;100340.06;5089801;28;20177;-67
2023/05/07 02:36:58;;;;;;;10.77;9.73;;;;;;;17.34;100.00;100322.47;5089479;28;20052;-67
2023/05/07 02:39:23;;;;;;;16.88;11.90;;;;;;;17.42;100.00;100336.00;5089625;28;20145;-67
2023/05/07 02:41:49;;;;;;;11.98;10.80;;;;;;;17.30;100.00;100326.56;5089009;28;20028;-68
2023/05/07 02:44:14;;;;;;;15.00;11.13;;;;;;;17.36;100.00;100339.41;5087859;28;20081;-65
2023/05/07 02:46:40;;;;;;;13.00;10.43;;;;;;;17.20;100.00;100320.50;5088891;28;20062;-67
2023/05/07 02:49:05;;;;;;;11.93;10.20;;;;;;;17.37;100.00;100343.78;5089230;28;20131;-67
2023/05/07 02:51:31;;;;;;;13.70;11.13;;;;;;;17.33;100.00;100342.47;5089548;28;20016;-67
2023/05/07 02:53:57;;;;;;;12.57;10.77;;;;;;;17.24;100.00;100325.41;5089420;28;20023;-66
2023/05/07 02:56:22;;;;;;;12.85;11.38;;;;;;;17.24;100.00;100329.97;5089459;28;20303;-67
2023/05/07 02:58:48;;;;;;;11.68;10.48;;;;;;;17.27;100.00;100335.03;5087698;28;20079;-67
2023/05/07 03:01:14;;;;;;;14.50;10.65;;;;;;;17.19;100.00;100321.53;5092220;28;20370;-67
2023/05/07 03:03:40;;;;;;;17.70;11.52;;;;;;;17.27;100.00;100343.16;5087369;28;20044;-67
2023/05/07 03:06:06;;;;;;;12.05;10.60;;;;;;;17.19;100.00;100326.97;5088794;28;20039;-67
2023/05/07 03:08:32;;;;;;;12.35;10.40;;;;;;;17.16;100.00;100325.44;5088904;28;20032;-62
2023/05/07 03:10:58;;;;;;;11.63;10.50;;;;;;;17.15;100.00;100333.75;5089005;28;20024;-62
2023/05/07 03:13:23;;;;;;;12.77;10.15;;;;;;;17.15;100.00;100336.47;5088873;28;20031;-62
2023/05/07 03:15:49;;;;;;;11.20;10.07;;;;;;;17.14;100.00;100330.19;5104800;28;20388;-62
2023/05/07 03:18:14;;;;;;;12.30;10.23;;;;;;;17.18;100.00;100346.94;5104776;28;20028;-61
2023/05/07 03:20:40;;;;;;;12.10;10.80;;;;;;;17.16;100.00;100349.00;5088454;28;20028;-67
2023/05/07 03:23:05;;;;;;;12.63;10.90;;;;;;;17.05;100.00;100335.81;5088832;28;20032;-67
2023/05/07 03:25:31;;;;;;;12.57;11.00;;;;;;;17.15;100.00;100352.75;5088598;28;20032;-68
2023/05/07 03:27:57;;;;;;;11.98;10.75;;;;;;;17.14;100.00;100357.31;5088597;28;20500;-67
2023/05/07 03:30:22;;;;;;;12.05;10.68;;;;;;;17.09;100.00;100350.72;5089192;28;20058;-66
2023/05/07 03:32:48;;;;;;;11.95;10.73;;;;;;;17.07;100.00;100344.63;5088986;28;20857;-68
2023/05/07 03:35:14;;;;;;;11.68;10.57;;;;;;;17.12;100.00;100363.94;5089221;28;20048;-68
2023/05/07 03:37:40;;;;;;;11.93;10.57;;;;;;;17.08;100.00;100358.00;5089223;28;20028;-68
2023/05/07 03:40:06;;;;;;;11.70;10.48;;;;;;;17.05;100.00;100357.50;5087986;28;20091;-62
2023/05/07 03:42:32;;;;;;;12.10;10.63;;;;;;;16.97;100.00;100344.84;5088886;28;20036;-62
2023/05/07 03:44:57;;;;;;;14.30;10.85;;;;;;;17.00;100.00;100355.34;5093785;28;20029;-62
2023/05/07 03:47:22;;;;;;;12.43;10.95;;;;;;;17.07;100.00;100369.00;5108160;28;20035;-63
2023/05/07 03:49:50;;;;;;;11.57;10.50;;;;;;;16.95;100.00;100346.88;5106565;28;20046;-62
2023/05/07 03:52:15;;;;;;;13.68;11.05;;;;;;;17.02;100.00;100350.56;5097771;28;20055;-68
2023/05/07 03:54:41;;;;;;;11.88;10.57;;;;;;;17.05;100.00;100361.06;5092341;28;20032;-68
2023/05/07 03:57:06;;;;;;;11.77;10.57;;;;;;;17.07;100.00;100367.16;5092464;28;20028;-62
2023/05/07 03:59:32;;;;;;;12.20;11.00;;;;;;;17.07;100.00;100378.00;5091070;28;20077;-62
2023/05/07 04:01:58;;;;;;;14.38;10.90;;;;;;;16.98;100.00;100361.91;5092310;28;20123;-67
2023/05/07 04:04:23;;;;;;;14.43;10.90;;;;;;;17.08;100.00;100378.81;5092376;28;20402;-67
2023/05/07 04:06:49;;;;;;;12.25;11.02;;;;;;;17.08;100.00;100376.13;5092386;28;20039;-66
2023/05/07 04:09:14;;;;;;;13.52;10.98;;;;;;;16.96;100.00;100358.56;5092411;28;20036;-67
2023/05/07 04:11:40;;;;;;;12.05;10.70;;;;;;;17.04;100.00;100372.06;5092113;28;20028;-68
2023/05/07 04:14:06;;;;;;;14.30;11.43;;;;;;;17.05;100.00;100373.75;5092203;28;20028;-62
2023/05/07 04:16:31;;;;;;;12.00;10.32;;;;;;;16.86;100.00;100341.66;5092072;28;20028;-61
2023/05/07 04:18:57;;;;;;;12.13;10.40;;;;;;;17.08;100.00;100386.94;5091943;28;20377;-63
2023/05/07 04:21:22;;;;;;;14.68;11.07;;;;;;;17.10;100.00;100391.19;5090808;28;20024;-61
2023/05/07 04:23:48;;;;;;;12.70;11.30;;;;;;;16.96;100.00;100364.81;5107936;28;20400;-62
2023/05/07 04:26:15;;;;;;;11.98;10.63;;;;;;;17.09;100.00;100388.66;5111174;28;20519;-63
2023/05/07 04:28:40;;;;;;;12.50;10.35;;;;;;;17.03;100.00;100389.34;5109745;28;20173;-62
2023/05/07 04:31:06;;;;;;;12.25;10.93;;;;;;;17.07;100.00;100405.09;5112370;28;20028;-62
2023/05/07 04:33:32;;;;;;;15.05;11.30;;;;;;;17.10;100.00;100415.59;5112363;28;20388;-61
2023/05/07 04:36:02;;;;;;;13.65;11.65;;;;;;;17.06;100.00;100402.56;5111994;28;20035;-62
2023/05/07 04:38:29;;;;;;;12.73;11.43;;;;;;;17.06;100.00;100402.56;5110552;28;20019;-62
2023/05/07 04:40:56;;;;;;;12.00;10.70;;;;;;;17.07;100.00;100402.38;5111672;28;20479;-61
2023/05/07 04:43:21;;;;;;;11.80;10.68;;;;;;;17.16;100.00;100408.63;5112125;28;20116;-62
2023/05/07 04:45:47;;;;;;;12.50;11.10;;;;;;;17.07;100.00;100394.25;5111765;28;20031;-62
2023/05/07 04:48:14;;;;;;;14.95;11.63;;;;;;;17.11;100.00;100400.16;5112169;28;20034;-62
2023/05/07 04:50:40;;;;;;;13.55;11.20;;;;;;;17.20;100.00;100415.38;5112399;27;20043;-62
2023/05/07 04:53:05;;;;;;;12.43;11.13;;;;;;;17.19;100.00;100405.56;5111916;28;20472;-61
2023/05/07 04:55:30;;;;;;;12.82;11.50;;;;;;;17.28;100.00;100407.25;5092926;28;20237;-63
2023/05/07 04:57:56;;;;;;;14.40;11.43;;;;;;;17.32;100.00;100405.84;5091255;28;20024;-62
2023/05/07 05:00:22;;;;;;;13.35;11.82;;;;;;;17.37;100.00;100408.88;5091494;28;20040;-62
2023/05/07 05:02:48;;;;;;;12.13;10.38;;;;;;;17.47;100.00;100410.38;5090666;28;20024;-63
2023/05/07 05:05:13;;;;;;;11.65;10.32;;;;;;;17.47;99.31;100414.97;5091278;28;20032;-63
2023/05/07 05:07:38;;;;;;;12.05;10.77;;;;;;;17.37;99.80;100388.03;5089522;28;20036;-62
2023/05/07 05:10:05;;;;;;;12.85;10.90;;;;;;;17.59;99.77;100414.41;5090867;28;20051;-62
2023/05/07 05:12:31;;;;;;;17.25;11.85;;;;;;;17.77;100.00;100438.56;5097356;28;20035;-61
2023/05/07 05:14:56;;;;;;;12.20;10.73;;;;;;;17.65;100.00;100411.00;5090566;28;20040;-62
2023/05/07 05:17:22;;;;;;;15.70;11.32;;;;;;;17.77;100.00;100423.09;5091135;28;20051;-62
2023/05/07 05:19:47;;;;;;;12.57;11.38;;;;;;;17.85;100.00;100420.38;5089319;28;20032;-61
2023/05/07 05:22:13;;;;;;;12.20;10.93;;;;;;;17.83;100.00;100416.97;5090736;28;20040;-61
2023/05/07 05:24:38;;;;;;;12.20;10.90;;;;;;;17.88;100.00;100421.88;5090493;28;20047;-62
2023/05/07 05:27:04;;;;;;;12.52;10.80;;;;;;;17.71;100.00;100380.41;5090521;28;20554;-62
2023/05/07 05:29:31;;;;;;;14.85;11.88;;;;;;;18.01;100.00;100419.41;5090279;28;20483;-62
2023/05/07 05:31:56;;;;;;;11.43;10.00;;;;;;;18.13;100.00;100421.50;5090396;28;20032;-61
2023/05/07 05:34:22;;;;;;;12.82;10.93;;;;;;;18.21;100.00;100419.81;5090233;28;20024;-62
2023/05/07 05:36:48;;;;;;;11.52;9.85;;;;;;;18.32;98.41;100409.34;5089894;28;20060;-62
2023/05/07 05:39:14;;;;;;;11.25;9.95;;;;;;;18.50;95.42;100423.47;5090817;28;20024;-62
2023/05/07 05:41:40;;;;;;;10.75;9.18;;;;;;;18.65;93.05;100428.94;5091002;28;20484;-62
2023/05/07 05:44:06;;;;;;;9.05;8.10;;;;;;;18.78;90.08;100426.44;5090285;28;20036;-64
2023/05/07 05:46:32;;;;;;;9.50;8.18;;;;;;;18.87;85.24;100415.34;5090250;28;20036;-63
2023/05/07 05:48:57;;;;;;;9.38;7.97;;;;;;;19.09;79.18;100427.97;5089810;28;20085;-61
2023/05/07 05:51:23;;;;;;;8.93;7.63;;;;;;;19.23;77.49;100432.59;5089056;28;20020;-61
2023/05/07 05:53:48;;;;;;;8.55;6.88;;;;;;;19.35;75.86;100427.56;5089637;28;20032;-63
2023/05/07 05:56:16;;;;;;;9.43;7.65;;;;;;;19.43;74.43;100428.31;5090048;28;20028;-63
2023/05/07 05:58:41;;;;;;;9.50;6.97;;;;;;;19.43;73.40;100411.13;5088520;28;20028;-62
2023/05/07 06:01:07;;;;;;;8.60;6.57;;;;;;;19.69;72.20;100430.53;5090224;28;20031;-62
2023/05/07 06:03:32;;;;;;;9.27;6.95;;;;;;;19.80;70.95;100425.44;5090239;28;20020;-63
2023/05/07 06:05:59;;;;;;;10.27;6.40;;;;;;;19.87;70.28;100426.34;5109941;28;20089;-62
2023/05/07 06:08:25;;;;;;;7.70;6.90;;;;;;;19.96;69.74;100427.94;5108531;28;20034;-62
2023/05/07 06:10:51;;;;;;;8.60;6.60;;;;;;;20.02;70.02;100427.16;5109569;28;20020;-61
2023/05/07 06:13:16;;;;;;;9.50;6.95;;;;;;;20.11;68.45;100428.75;5109655;28;20031;-62
2023/05/07 06:15:42;;;;;;;11.27;6.70;;;;;;;20.17;66.56;100433.44;5108853;28;20035;-62
2023/05/07 06:18:07;;;;;;;8.18;6.20;;;;;;;20.21;67.13;100425.72;5109981;28;20027;-62
2023/05/07 06:20:32;;;;;;;7.03;5.95;;;;;;;20.28;66.54;100423.06;5108089;28;20080;-62
2023/05/07 06:22:58;;;;;;;9.23;6.32;;;;;;;20.34;64.59;100423.13;5089684;28;20039;-63
2023/05/07 06:25:23;;;;;;;6.70;5.80;;;;;;;20.36;64.91;100414.75;5089789;28;20027;-62
2023/05/07 06:27:49;;;;;;;7.20;6.00;;;;;;;20.46;64.26;100415.25;5089588;28;20047;-63
2023/05/07 06:30:14;;;;;;;6.20;5.60;;;;;;;20.51;63.42;100404.63;5089891;28;20020;-63
2023/05/07 06:32:41;;;;;;;7.28;6.00;;;;;;;20.63;63.03;100405.78;5089700;28;20024;-62
2023/05/07 06:35:06;;;;;;;10.07;5.90;;;;;;;20.82;62.90;100410.53;5089470;28;20076;-62
2023/05/07 06:37:32;;;;;;;9.32;6.07;;;;;;;20.97;61.99;100411.31;5089396;28;20457;-62
2023/05/07 06:39:57;;;;;;;7.28;6.53;;;;;;;21.09;60.56;100407.81;5089537;28;20042;-64
2023/05/07 06:42:23;;;;;;;6.88;5.65;;;;;;;21.11;61.22;100411.22;5089701;28;20024;-63
2023/05/07 06:44:48;;;;;;;7.30;5.70;;;;;;;21.21;60.45;100405.38;5089208;28;20074;-63
2023/05/07 06:47:14;;;;;;;7.72;5.43;;;;;;;21.17;61.04;100394.03;5089587;28;20063;-62
2023/05/07 06:49:39;;;;;;;6.05;5.10;;;;;;;21.31;60.11;100403.16;5089230;28;20047;-62
2023/05/07 06:52:04;;;;;;;6.43;5.70;;;;;;;21.39;61.04;100408.44;5087532;28;20480;-63
2023/05/07 06:54:30;;;;;;;5.85;5.22;;;;;;;21.48;60.24;100399.88;5089627;28;20027;-63
2023/05/07 06:56:56;;;;;;;7.53;5.53;;;;;;;21.60;59.40;100391.97;5094486;28;20031;-63
2023/05/07 06:59:21;;;;;;;9.75;5.60;;;;;;;21.70;59.31;100397.88;5089276;28;20373;-67
2023/05/07 07:01:47;;;;;;;7.07;5.65;;;;;;;21.91;57.96;100409.53;5088859;28;20031;-67
2023/05/07 07:04:12;;;;;;;6.65;5.95;;;;;;;21.97;58.41;100407.88;5089290;28;20476;-68
2023/05/07 07:06:38;;;;;;;6.65;5.30;;;;;;;22.05;58.57;100407.66;5089155;28;20028;-67
2023/05/07 07:09:03;;;;;;;6.60;5.35;;;;;;;22.13;57.73;100391.09;5088180;28;20028;-68
2023/05/07 07:11:28;;;;;;;6.55;5.70;;;;;;;22.37;57.25;100411.53;5089224;28;20435;-67
2023/05/07 07:13:54;;;;;;;6.95;5.22;;;;;;;22.46;56.53;100410.25;5088912;28;20031;-67
2023/05/07 07:16:21;;;;;;;7.13;5.78;;;;;;;22.54;56.85;100410.09;5088942;28;20043;-67
2023/05/07 07:18:46;;;;;;;9.30;5.95;;;;;;;22.66;56.56;100406.53;5087475;28;20020;-68
2023/05/07 07:21:12;;;;;;;10.45;5.93;;;;;;;22.69;56.50;100408.84;5088736;28;20396;-67
2023/05/07 07:23:37;;;;;;;7.60;5.60;;;;;;;22.73;56.04;100415.56;5087534;28;20020;-68
2023/05/07 07:26:02;;;;;;;6.07;5.50;;;;;;;22.70;56.76;100415.16;5090247;28;20325;-67
2023/05/07 07:28:28;;;;;;;9.60;5.93;;;;;;;22.65;56.44;100413.06;5093247;28;20016;-67
2023/05/07 07:30:53;;;;;;;7.88;5.68;;;;;;;22.58;56.67;100414.94;5091514;28;20515;-68
2023/05/07 07:33:19;;;;;;;7.88;6.00;;;;;;;22.51;56.67;100421.47;5093262;28;20024;-68
2023/05/07 07:35:44;;;;;;;7.60;5.55;;;;;;;22.23;56.61;100391.53;5092594;28;20078;-68
2023/05/07 07:38:10;;;;;;;6.65;5.80;;;;;;;22.26;57.48;100408.38;5093109;28;20166;-67
2023/05/07 07:40:36;;;;;;;6.75;6.03;;;;;;;22.26;58.01;100423.91;5092890;28;20126;-67
2023/05/07 07:43:01;;;;;;;10.52;6.38;;;;;;;22.18;58.17;100421.34;5092735;28;20541;-67
2023/05/07 07:45:27;;;;;;;7.65;5.55;;;;;;;22.03;59.31;100420.72;5092891;28;20039;-68
2023/05/07 07:47:52;;;;;;;7.15;5.78;;;;;;;21.88;58.99;100418.16;5092717;28;20239;-68
2023/05/07 07:50:18;;;;;;;6.55;5.55;;;;;;;21.86;58.71;100422.97;5092599;28;20711;-67
2023/05/07 07:52:44;;;;;;;7.95;5.95;;;;;;;21.81;58.49;100424.63;5091262;28;20035;-68
2023/05/07 07:55:09;;;;;;;6.30;5.70;;;;;;;21.71;58.52;100429.59;5125631;27;20073;-66
2023/05/07 07:57:35;;;;;;;8.00;5.47;;;;;;;21.60;59.48;100427.47;5092650;28;20097;-68
2023/05/07 08:00:00;;;;;;;6.75;6.15;;;;;;;21.53;59.24;100432.00;5092816;28;20116;-67
2023/05/07 08:02:26;;;;;;;10.48;6.18;;;;;;;21.47;60.00;100438.31;5092389;28;20065;-68
2023/05/07 08:04:51;;;;;;;7.63;6.22;;;;;;;21.36;60.26;100442.44;5092161;28;20085;-67
2023/05/07 08:07:20;;;;;;;10.77;6.22;;;;;;;21.30;60.37;100437.78;5092520;28;20051;-67
2023/05/07 08:09:46;;;;;;;8.10;5.60;;;;;;;21.10;60.52;100415.00;5092146;28;20103;-67
2023/05/07 08:12:11;;;;;;;7.15;5.78;;;;;;;21.14;61.18;100446.28;5092444;28;20099;-66
2023/05/07 08:14:37;;;;;;;6.35;5.75;;;;;;;21.04;61.92;100445.78;5092140;28;20133;-66
2023/05/07 08:17:02;;;;;;;9.45;6.20;;;;;;;20.97;62.28;100442.19;5092076;28;20020;-68
2023/05/07 08:19:28;;;;;;;8.25;5.63;;;;;;;21.01;62.51;100457.09;5107620;28;20023;-68
2023/05/07 08:21:53;;;;;;;8.25;6.20;;;;;;;20.92;61.59;100454.69;5112761;28;20108;-70
2023/05/07 08:24:18;;;;;;;8.48;6.10;;;;;;;20.94;62.48;100458.06;5112738;28;20077;-68
2023/05/07 08:26:44;;;;;;;20.83;16.52;;;;;;;20.90;63.72;100471.25;5110901;28;20036;-68
2023/05/07 08:29:10;;;;;;;35.53;23.08;;;;;;;20.88;64.50;100469.75;5112284;28;20430;-67
2023/05/07 08:31:36;;;;;;;29.42;23.35;;;;;;;20.85;64.48;100462.81;5112481;28;20035;-67
2023/05/07 08:34:03;;;;;;;28.33;25.10;;;;;;;20.82;64.55;100465.91;5112308;28;20472;-66
2023/05/07 08:36:28;;;;;;;11.52;8.38;;;;;;;20.72;65.14;100453.66;5101434;28;20032;-65
2023/05/07 08:38:54;;;;;;;9.70;7.00;;;;;;;20.72;66.37;100459.09;5089635;28;20031;-67
2023/05/07 08:41:20;;;;;;;65.93;51.25;;;;;;;20.84;66.65;100468.44;5091907;28;20042;-68
2023/05/07 08:43:50;;;;;;;13.48;9.52;;;;;;;20.93;66.62;100467.28;5091508;28;20731;-66
2023/05/07 08:46:22;;;;;;;8.65;7.70;;;;;;;20.88;67.68;100461.56;5091633;28;20404;-68
2023/05/07 08:48:49;;;;;;;8.45;7.07;;;;;;;20.79;69.23;100473.66;5091049;28;20119;-67
2023/05/07 08:51:19;;;;;;;9.90;6.68;;;;;;;20.71;71.01;100471.06;5091516;28;20435;-68
2023/05/07 08:53:45;;;;;;;10.65;7.45;;;;;;;20.58;72.67;100466.34;5091020;28;20056;-67
2023/05/07 08:56:11;;;;;;;8.00;7.20;;;;;;;20.42;73.29;100461.16;5091185;28;20031;-67
2023/05/07 08:58:37;;;;;;;11.95;7.85;;;;;;;20.39;74.74;100475.16;5091131;28;20047;-68
2023/05/07 09:01:07;;;;;;;10.80;7.30;;;;;;;20.35;74.20;100462.13;5090924;28;20476;-68
2023/05/07 09:03:33;;;;;;;12.23;7.22;;;;;;;20.17;75.08;100449.78;5091143;28;20035;-67
2023/05/07 09:05:58;;;;;;;9.05;7.15;;;;;;;20.33;74.85;100475.94;5097190;28;20073;-68
2023/05/07 09:08:26;;;;;;;11.70;8.40;;;;;;;20.27;76.13;100482.16;5095981;28;20036;-67
2023/05/07 09:10:52;;;;;;;10.55;8.77;;;;;;;20.12;78.37;100462.31;5090639;28;20042;-67
2023/05/07 09:13:18;;;;;;;10.32;8.80;;;;;;;20.20;80.52;100473.06;5089776;28;20073;-68
2023/05/07 09:15:43;;;;;;;16.17;9.40;;;;;;;20.19;82.53;100469.47;5089290;28;20434;-67
2023/05/07 09:18:09;;;;;;;11.00;9.25;;;;;;;20.06;84.74;100452.97;5098045;27;20035;-68
2023/05/07 09:20:36;;;;;;;11.02;8.90;;;;;;;20.11;85.60;100457.84;5131594;27;20018;-67
2023/05/07 09:23:02;;;;;;;11.40;9.50;;;;;;;20.06;85.45;100443.97;5130630;27;20122;-67
2023/05/07 09:25:29;;;;;;;10.98;9.93;;;;;;;20.15;85.89;100461.88;5118803;27;20400;-68
2023/05/07 09:27:55;;;;;;;12.05;10.52;;;;;;;20.18;86.99;100464.22;5110881;28;20031;-67
2023/05/07 09:30:20;;;;;;;11.85;10.32;;;;;;;20.16;87.79;100463.59;5111328;28;20476;-67
2023/05/07 09:32:46;;;;;;;12.13;10.20;;;;;;;20.17;88.14;100451.66;5111959;28;20513;-68
2023/05/07 09:35:16;;;;;;;12.73;10.15;;;;;;;20.21;88.45;100454.84;5111562;28;20189;-67
2023/05/07 09:37:42;;;;;;;11.75;9.98;;;;;;;20.25;86.94;100459.72;5111188;28;20027;-67
2023/05/07 09:40:20;;;;;;;11.38;10.23;;;;;;;20.27;86.40;100454.91;5109650;28;20533;-67
2023/05/07 09:42:47;;;;;;;13.00;10.98;;;;;;;20.29;86.09;100455.56;5110620;28;20458;-62
2023/05/07 09:45:12;;;;;;;13.00;10.30;;;;;;;20.39;84.07;100464.25;5109505;28;20035;-63
2023/05/07 09:47:44;;;;;;;12.38;9.73;;;;;;;20.40;81.66;100459.63;5110934;27;20068;-63
2023/05/07 09:50:10;;;;;;;13.93;9.25;;;;;;;20.45;80.80;100459.91;5109712;28;20067;-63
2023/05/07 09:52:36;;;;;;;15.00;9.05;;;;;;;20.51;81.32;100459.13;5110785;28;20027;-61
2023/05/07 09:55:02;;;;;;;13.38;9.55;;;;;;;20.56;80.09;100459.38;5110767;28;20038;-61
2023/05/07 09:57:30;;;;;;;10.30;8.57;;;;;;;20.51;77.25;100443.63;5108947;28;20019;-62
2023/05/07 09:59:57;;;;;;;10.50;9.40;;;;;;;20.69;76.74;100464.94;5110429;28;20028;-61
2023/05/07 10:02:25;;;;;;;11.23;8.95;;;;;;;20.65;77.07;100447.31;5109031;28;20107;-62
2023/05/07 10:04:52;;;;;;;9.35;8.45;;;;;;;20.76;77.50;100454.97;5110323;28;20430;-62
2023/05/07 10:07:18;;;;;;;10.48;9.32;;;;;;;20.74;76.83;100446.13;5109083;28;20043;-63
2023/05/07 10:09:46;;;;;;;11.10;9.73;;;;;;;20.84;76.48;100452.94;5110481;28;20032;-63
2023/05/07 10:12:12;;;;;;;11.13;10.02;;;;;;;20.96;76.02;100464.19;5110261;28;20027;-62
2023/05/07 10:14:38;;;;;;;10.90;9.88;;;;;;;20.88;75.53;100447.91;5110304;28;20020;-63
2023/05/07 10:17:03;;;;;;;11.25;9.50;;;;;;;21.06;75.64;100462.81;5110431;28;20035;-62
2023/05/07 10:19:29;;;;;;;11.55;10.45;;;;;;;21.10;75.35;100457.78;5110264;28;20084;-67
2023/05/07 10:21:59;;;;;;;9.80;8.80;;;;;;;21.16;75.29;100457.00;5109893;28;20044;-67
2023/05/07 10:24:36;;;;;;;12.73;9.75;;;;;;;21.10;75.11;100435.97;5110164;28;20033;-68
2023/05/07 10:27:08;;;;;;;10.77;9.68;;;;;;;21.26;74.50;100457.47;5109986;28;20092;-67
2023/05/07 10:29:42;;;;;;;12.63;9.57;;;;;;;21.44;72.40;100449.63;5110184;28;20418;-67
2023/05/07 10:32:35;;;;;;;9.70;8.73;;;;;;;21.50;72.79;100460.56;5110153;28;20106;-68
2023/05/07 10:35:04;;;;;;;12.20;9.82;;;;;;;21.55;73.22;100463.53;5109900;28;20034;-68
2023/05/07 10:37:30;;;;;;;14.45;10.75;;;;;;;21.69;69.61;100446.19;5110030;28;20043;-67
2023/05/07 10:39:57;;;;;;;10.35;8.63;;;;;;;21.68;70.26;100452.69;5109802;28;20412;-67
2023/05/07 10:42:23;;;;;;;10.07;9.00;;;;;;;21.57;69.60;100434.13;5109928;28;20080;-67
2023/05/07 10:44:48;;;;;;;12.32;8.63;;;;;;;21.69;69.34;100457.09;5109466;28;20032;-69
2023/05/07 10:47:18;;;;;;;9.30;8.40;;;;;;;21.62;69.18;100448.03;5109790;28;20024;-69
2023/05/07 10:49:43;;;;;;;7.95;6.90;;;;;;;21.73;66.21;100460.31;5109741;28;20047;-68
2023/05/07 10:52:21;;;;;;;9.18;8.25;;;;;;;21.83;65.27;100456.13;5109738;28;20066;-67
2023/05/07 10:54:47;;;;;;;10.65;8.50;;;;;;;21.71;66.31;100457.75;5109624;28;20054;-68
2023/05/07 10:57:30;;;;;;;8.73;7.63;;;;;;;21.71;67.58;100459.63;5109896;28;20103;-67
2023/05/07 10:59:56;;;;;;;8.40;7.57;;;;;;;21.68;67.67;100451.84;5109627;28;20069;-68
2023/05/07 11:02:21;;;;;;;9.55;8.63;;;;;;;21.66;67.74;100454.78;5113493;28;20039;-67
2023/05/07 11:05:22;;;;;;;8.68;7.30;;;;;;;21.61;68.23;100456.44;5114144;28;20110;-68
2023/05/07 11:08:14;;;;;;;8.68;7.88;;;;;;;21.59;68.08;100453.91;5112888;28;20532;-68